Flight Track Log - Related Links

Times and Time Zones

All times are in EST time to prevent confusion due to time zone crossing. See the EJA831 flight status page for this flight to view local times or setup timezone preferences in your user account.


Time Position Orientation Groundspeed Altitude Reporting Facility
EST Latitude Longitude Course Direction KTS MPH feet Rate Location/Type
Sun 08:51:51 PM 25.8000 -80.2792 81° East 169 194 900  Level Miami Center
Sun 08:53:04 PM 25.8103 -80.2033 81° East 243 280 5,400 2,731 Climbing Miami Center
Sun 08:54:05 PM 25.8225 -80.1228 80° East 273 314 7,000 787 Climbing Miami Center
Sun 08:55:06 PM 25.8797 -80.0853 31° Northeast 281 323 7,000 1,622 Level Miami Center
Sun 08:56:33 PM 25.9789 -80.1317 337° Northwest 317 365 11,000 2,653 Climbing Miami Center
Sun 08:57:33 PM 26.0125 -80.2181 293° West 297 342 13,500 2,400 Climbing Miami Center
Sun 08:58:33 PM 26.0500 -80.3094 295° West 308 354 15,800 2,350 Climbing Miami Center
Sun 08:59:33 PM 26.0914 -80.4169 293° West 335 386 18,200 2,050 Climbing Miami Center
Sun 09:00:33 PM 26.1328 -80.5156 295° West 345 397 19,900 900 Climbing Miami Center
Sun 09:01:33 PM 26.1908 -80.6119 304° West 356 410 20,000 50 Climbing Miami Center
Sun 09:02:33 PM 26.2617 -80.7022 311° West 376 433 20,000  Level Miami Center
Sun 09:03:33 PM 26.3367 -80.7928 313° West 386 444 20,000  Level Miami Center
Sun 09:04:33 PM 26.4114 -80.8811 313° West 392 451 20,000  Level Miami Center
Sun 09:05:33 PM 26.4883 -80.9719 313° West 397 457 20,000  Level Miami Center
Sun 09:06:33 PM 26.5650 -81.0653 313° West 397 457 20,000  Level Miami Center
Sun 09:07:33 PM 26.6297 -81.1372 315° West 380 437 20,000  Level Miami Center
Sun 09:08:33 PM 26.6942 -81.2161 312° West 354 407 20,000  Level Miami Center
Sun 09:09:33 PM 26.7667 -81.3050 312° West 346 398 20,000  Level Miami Center
Sun 09:10:33 PM 26.8331 -81.3842 313° West 346 398 20,000  Level Miami Center
Sun 09:11:33 PM 26.8994 -81.4636 313° West 346 398 20,000  Level Miami Center
Sun 09:12:33 PM 26.9578 -81.5336 313° West 346 398 20,000 -200 Level Miami Center
Sun 09:13:33 PM 27.0239 -81.6131 313° West 346 398 19,600 -1,050 Descending Miami Center
Sun 09:14:33 PM 27.0922 -81.6975 312° West 336 387 17,900 -1,700 Descending Miami Center
Sun 09:15:33 PM 27.1564 -81.7725 314° West 336 387 16,200 -1,600 Descending Miami Center
Sun 09:16:33 PM 27.2186 -81.8500 312° West 336 387 14,700 -1,450 Descending Miami Center
Sun 09:17:33 PM 27.2786 -81.9225 313° West 330 380 13,300 -1,300 Descending Miami Center
Sun 09:18:33 PM 27.3328 -81.9881 313° West 325 374 12,100 -1,200 Descending Miami Center
Sun 09:19:33 PM 27.3906 -82.0608 312° West 325 374 10,900 -600 Descending Miami Center
Sun 09:20:33 PM 27.4506 -82.1358 312° West 325 374 10,900  Level Miami Center
Sun 09:21:33 PM 27.5147 -82.2022 317° Northwest 319 367 10,900  Level Miami Center
Sun 09:22:33 PM 27.5969 -82.2386 339° North 317 365 10,900 -808 Level Miami Center
Sun 09:23:17 PM 27.6667 -82.2667 340° North 313 360 9,500 -1,837 Descending Tampa TRACON
Sun 09:24:11 PM 27.7333 -82.3000 336° Northwest 296 341 7,900 -1,737 Descending Tampa TRACON
Sun 09:25:11 PM 27.8167 -82.3333 341° North 288 331 6,200 -1,500 Descending Tampa TRACON
Sun 09:26:11 PM 27.8833 -82.3667 336° Northwest 270 311 4,900 -1,550 Descending Tampa TRACON
Sun 09:27:11 PM 27.9500 -82.4000 336° Northwest 282 325 3,100 -1,150 Descending Tampa TRACON
Sun 09:28:11 PM 28.0167 -82.4167 348° North 204 235 2,600 -263 Descending Tampa TRACON
Sun 09:29:05 PM 28.0667 -82.4167 360° North 208 239 2,600 -53 Level Tampa TRACON
Sun 09:30:05 PM 28.0833 -82.4833 286° West 177 204 2,500 -550 Descending Tampa TRACON
Sun 09:31:05 PM 28.0833 -82.5333 270° West 143 165 1,500 -762 Descending Tampa TRACON
Sun 09:32:11 PM 28.0500 -82.5333 180° South 126 145 900 -571 Descending Tampa TRACON
Sun 09:33:11 PM 28.0000 -82.5333 180° South 123 142 300 -600 Descending Tampa TRACON
Sun 09:35:00 PM 27.9755 -82.5332 190° South  Level Estimated

Login

Don't have an account? Register now (free) for customized features, flight alerts, and more!